createdAt,value
2022-09-28T00:01:15.662Z,95830.72
2022-09-28T00:03:43.143Z,95831.97
2022-09-28T00:06:12.833Z,95836.38
2022-09-28T00:08:39.564Z,95835.25
2022-09-28T00:11:08.064Z,95838.66
2022-09-28T00:13:35.276Z,95833.13
2022-09-28T00:16:12.520Z,95839.34
2022-09-28T00:18:39.122Z,95842.50
2022-09-28T00:21:08.833Z,95847.53
2022-09-28T00:23:57.756Z,95852.63
2022-09-28T00:26:24.562Z,95855.69
2022-09-28T00:28:55.554Z,95847.41
2022-09-28T00:31:23.055Z,95846.84
2022-09-28T00:33:53.105Z,95851.41
2022-09-28T00:36:19.743Z,95854.25
2022-09-28T00:38:46.516Z,95853.38
2022-09-28T00:41:13.163Z,95856.09
2022-09-28T00:43:39.884Z,95855.63
2022-09-28T00:46:34.015Z,95864.78
2022-09-28T00:49:09.338Z,95862.53
2022-09-28T00:51:38.862Z,95849.38
2022-09-28T00:54:07.495Z,95848.59
2022-09-28T00:56:36.356Z,95838.03
2022-09-28T00:59:04.781Z,95840.31
2022-09-28T01:01:31.594Z,95840.44
2022-09-28T01:03:59.377Z,95839.03
2022-09-28T01:06:31.164Z,95847.09
2022-09-28T01:09:00.412Z,95840.53
2022-09-28T01:11:27.806Z,95847.31
2022-09-28T01:13:57.620Z,95852.22
2022-09-28T01:16:32.480Z,95844.84
2022-09-28T01:19:28.850Z,95839.28
2022-09-28T01:22:17.981Z,95835.28
2022-09-28T01:24:51.810Z,95832.78
2022-09-28T01:27:40.519Z,95835.28
2022-09-28T01:30:09.977Z,95836.59
2022-09-28T01:32:56.279Z,95841.78
2022-09-28T01:35:44.566Z,95853.19
2022-09-28T01:38:34.483Z,95853.72
2022-09-28T01:41:01.824Z,95850.03
2022-09-28T01:43:30.596Z,95849.06
2022-09-28T01:46:00.133Z,95839.88
2022-09-28T01:48:35.754Z,95839.25
2022-09-28T01:51:08.256Z,95843.63
2022-09-28T01:53:47.784Z,95843.38
2022-09-28T01:56:50.206Z,95850.56
2022-09-28T01:59:21.703Z,95848.72
2022-09-28T02:02:09.897Z,95856.91
2022-09-28T02:04:47.769Z,95861.75
2022-09-28T02:07:20.631Z,95862.44
2022-09-28T02:09:55.357Z,95875.53
2022-09-28T02:12:33.146Z,95882.53
2022-09-28T02:15:12.628Z,95889.56
2022-09-28T02:17:39.544Z,95878.44
2022-09-28T02:20:07.551Z,95892.94
2022-09-28T02:22:43.295Z,95892.59
2022-09-28T02:25:36.984Z,95892.56
2022-09-28T02:28:09.963Z,95894.28
2022-09-28T02:30:39.202Z,95892.38
2022-09-28T02:33:22.689Z,95908.00
2022-09-28T02:35:49.331Z,95907.78
2022-09-28T02:38:15.942Z,95911.44
2022-09-28T02:40:48.840Z,95904.22
2022-09-28T02:43:44.693Z,95910.28
2022-09-28T02:46:16.950Z,95917.63
2022-09-28T02:48:55.841Z,95911.72
2022-09-28T02:51:46.485Z,95920.38
2022-09-28T02:54:33.451Z,95922.47
2022-09-28T02:57:48.521Z,95919.28
2022-09-28T03:00:19.591Z,95921.34
2022-09-28T03:03:24.166Z,95915.94
2022-09-28T03:06:20.284Z,95918.50
2022-09-28T03:09:11.377Z,95905.44
2022-09-28T03:11:47.112Z,95905.97
2022-09-28T03:14:14.746Z,95913.44
2022-09-28T03:16:45.260Z,95908.00
2022-09-28T03:19:13.046Z,95912.50
2022-09-28T03:21:39.743Z,95907.28
2022-09-28T03:24:06.623Z,95910.00
2022-09-28T03:26:33.594Z,95910.44
2022-09-28T03:29:00.291Z,95914.75
2022-09-28T03:31:27.287Z,95907.72
2022-09-28T03:33:54.073Z,95905.06
2022-09-28T03:36:20.894Z,95884.22
2022-09-28T03:38:47.694Z,95877.84
2022-09-28T03:41:14.507Z,95877.84
2022-09-28T03:43:41.100Z,95880.41
2022-09-28T03:46:07.985Z,95887.75
2022-09-28T03:48:36.251Z,95896.69
2022-09-28T03:51:06.995Z,95904.97
2022-09-28T03:53:33.936Z,95898.56
2022-09-28T03:56:27.222Z,95902.06
2022-09-28T03:58:54.137Z,95908.13
2022-09-28T04:01:21.092Z,95897.91
2022-09-28T04:03:52.971Z,95909.22
2022-09-28T04:06:19.664Z,95917.03
2022-09-28T04:08:46.199Z,95924.06
2022-09-28T04:11:13.263Z,95931.72
2022-09-28T04:13:39.915Z,95923.59
2022-09-28T04:16:06.791Z,95927.09
2022-09-28T04:18:34.021Z,95946.88
2022-09-28T04:21:03.697Z,95939.22
2022-09-28T04:23:30.310Z,95933.19
2022-09-28T04:25:57.183Z,95924.78
2022-09-28T04:28:42.714Z,95930.34
2022-09-28T04:31:12.493Z,95925.53
2022-09-28T04:33:39.283Z,95938.44
2022-09-28T04:36:06.191Z,95933.16
2022-09-28T04:38:51.692Z,95932.19
2022-09-28T04:41:18.887Z,95928.97
2022-09-28T04:43:48.814Z,95931.81
2022-09-28T04:46:15.744Z,95935.00
2022-09-28T04:48:42.478Z,95943.94
2022-09-28T04:51:09.095Z,95945.69
2022-09-28T04:53:35.771Z,95950.75
2022-09-28T04:56:05.480Z,95951.03
2022-09-28T04:58:34.383Z,95952.91
2022-09-28T05:01:06.905Z,95956.06
2022-09-28T05:03:34.421Z,95961.81
2022-09-28T05:06:01.762Z,95963.59
2022-09-28T05:08:28.641Z,95965.66
2022-09-28T05:11:10.671Z,95963.25
2022-09-28T05:13:42.696Z,95964.31
2022-09-28T05:16:10.364Z,95962.97
2022-09-28T05:18:37.076Z,95968.56
2022-09-28T05:21:04.982Z,95961.41
2022-09-28T05:23:32.783Z,95967.75
2022-09-28T05:26:02.187Z,95975.06
2022-09-28T05:28:30.939Z,95966.53
2022-09-28T05:31:05.195Z,95965.66
2022-09-28T05:33:32.928Z,95960.97
2022-09-28T05:36:01.677Z,95968.47
2022-09-28T05:38:29.884Z,95968.16
2022-09-28T05:40:57.073Z,95973.06
2022-09-28T05:43:23.806Z,95981.00
2022-09-28T05:45:55.318Z,95976.50
2022-09-28T05:48:22.922Z,95982.19
2022-09-28T05:50:53.498Z,95985.84
2022-09-28T05:53:20.453Z,95989.50
2022-09-28T05:55:47.787Z,96000.59
2022-09-28T05:58:14.752Z,95995.28
2022-09-28T06:00:41.341Z,96005.50
2022-09-28T06:03:11.748Z,96006.13
2022-09-28T06:05:42.135Z,96009.09
2022-09-28T06:08:10.779Z,96007.41
2022-09-28T06:10:37.771Z,96009.25
2022-09-28T06:13:05.145Z,96011.44
2022-09-28T06:15:33.763Z,95996.81
2022-09-28T06:18:01.360Z,96000.56
2022-09-28T06:20:30.159Z,96002.75
2022-09-28T06:22:56.878Z,95998.69
2022-09-28T06:25:24.527Z,96006.88
2022-09-28T06:28:00.236Z,96006.31
2022-09-28T06:30:28.971Z,96015.75
2022-09-28T06:32:59.052Z,96018.47
2022-09-28T06:35:28.493Z,96014.28
2022-09-28T06:37:55.157Z,96013.59
2022-09-28T06:40:22.664Z,96009.41
2022-09-28T06:42:57.105Z,96006.59
2022-09-28T06:45:25.553Z,96014.88
2022-09-28T06:47:57.617Z,96014.63
2022-09-28T06:50:28.423Z,96009.97
2022-09-28T06:52:55.515Z,96012.59
2022-09-28T06:55:22.510Z,96021.81
2022-09-28T06:57:58.702Z,96021.00
2022-09-28T07:00:31.397Z,96025.19
2022-09-28T07:02:57.955Z,96032.00
2022-09-28T07:05:27.434Z,96028.81
2022-09-28T07:07:58.234Z,96029.16
2022-09-28T07:10:27.935Z,96028.56
2022-09-28T07:12:55.954Z,96029.69
2022-09-28T07:15:23.638Z,96039.41
2022-09-28T07:18:00.396Z,96038.59
2022-09-28T07:20:29.403Z,96048.69
2022-09-28T07:23:00.371Z,96048.81
2022-09-28T07:25:32.518Z,96055.84
2022-09-28T07:28:00.150Z,96061.88
2022-09-28T07:30:29.022Z,96068.00
2022-09-28T07:32:56.217Z,96068.00
2022-09-28T07:35:22.818Z,96070.75
2022-09-28T07:37:49.561Z,96075.97
2022-09-28T07:40:35.906Z,96069.63
2022-09-28T07:43:07.241Z,96060.78
2022-09-28T07:45:38.971Z,96056.47
2022-09-28T07:48:05.712Z,96058.72
2022-09-28T07:50:32.621Z,96057.47
2022-09-28T07:53:00.748Z,96063.97
2022-09-28T07:55:27.358Z,96078.34
2022-09-28T07:57:56.305Z,96067.94
2022-09-28T08:00:23.323Z,96068.19
2022-09-28T08:02:49.938Z,96068.66
2022-09-28T08:05:16.655Z,96082.34
2022-09-28T08:07:44.309Z,96081.03
2022-09-28T08:10:11.393Z,96078.63
2022-09-28T08:12:40.697Z,96085.06
2022-09-28T08:15:10.558Z,96094.22
2022-09-28T08:17:37.859Z,96083.75
2022-09-28T08:20:23.702Z,96091.06
2022-09-28T08:22:50.770Z,96087.78
2022-09-28T08:25:17.325Z,96098.81
2022-09-28T08:27:44.133Z,96089.84
2022-09-28T08:30:11.314Z,96094.97
2022-09-28T08:32:37.924Z,96087.66
2022-09-28T08:35:05.038Z,96082.81
2022-09-28T08:37:31.880Z,96079.84
2022-09-28T08:39:58.483Z,96080.97
2022-09-28T08:42:39.405Z,96084.16
2022-09-28T08:45:09.301Z,96091.56
2022-09-28T08:48:09.557Z,96090.69
2022-09-28T08:50:46.005Z,96089.69
2022-09-28T08:53:21.298Z,96089.59
2022-09-28T08:55:49.118Z,96091.16
2022-09-28T08:58:24.391Z,96089.31
2022-09-28T09:00:52.982Z,96094.91
2022-09-28T09:03:39.485Z,96094.13
2022-09-28T09:06:34.393Z,96095.34
2022-09-28T09:09:04.112Z,96090.06
2022-09-28T09:11:44.507Z,96083.88
2022-09-28T09:14:28.335Z,96075.00
2022-09-28T09:17:35.521Z,96076.66
2022-09-28T09:20:14.154Z,96072.44
2022-09-28T09:22:51.707Z,96076.75
2022-09-28T09:25:22.314Z,96081.25
2022-09-28T09:28:07.657Z,96094.91
2022-09-28T09:30:59.509Z,96092.22
2022-09-28T09:33:40.001Z,96093.22
2022-09-28T09:36:22.056Z,96097.47
2022-09-28T09:39:14.547Z,96096.69
2022-09-28T09:42:32.450Z,96089.00
2022-09-28T09:45:14.157Z,96095.88
2022-09-28T09:47:45.591Z,96111.75
2022-09-28T09:50:30.209Z,96123.00
2022-09-28T09:53:10.252Z,96114.66
2022-09-28T09:55:40.741Z,96116.94
2022-09-28T09:58:18.488Z,96114.63
2022-09-28T10:00:48.261Z,96112.31
2022-09-28T10:03:24.431Z,96119.19
2022-09-28T10:06:17.053Z,96113.19
2022-09-28T10:08:50.520Z,96113.19
2022-09-28T10:11:31.665Z,96112.25
2022-09-28T10:13:59.862Z,96111.44
2022-09-28T10:16:26.877Z,96111.59
2022-09-28T10:18:53.500Z,96120.81
2022-09-28T10:21:23.265Z,96127.31
2022-09-28T10:23:58.565Z,96128.75
2022-09-28T10:26:32.913Z,96127.47
2022-09-28T10:29:01.636Z,96132.34
2022-09-28T10:31:41.269Z,96131.31
2022-09-28T10:34:10.673Z,96130.47
2022-09-28T10:36:50.245Z,96131.09
2022-09-28T10:39:43.156Z,96125.44
2022-09-28T10:42:12.748Z,96119.00
2022-09-28T10:44:59.270Z,96126.63
2022-09-28T10:47:30.833Z,96121.94
2022-09-28T10:49:58.599Z,96124.06
2022-09-28T10:52:34.688Z,96122.38
2022-09-28T10:55:02.369Z,96121.53
2022-09-28T10:57:35.021Z,96122.97
2022-09-28T11:00:02.991Z,96120.84
2022-09-28T11:02:36.560Z,96119.41
2022-09-28T11:05:06.493Z,96114.00
2022-09-28T11:07:43.962Z,96112.53
2022-09-28T11:10:21.060Z,96103.97
2022-09-28T11:12:49.728Z,96109.88
2022-09-28T11:15:34.607Z,96106.19
2022-09-28T11:18:25.888Z,96096.97
2022-09-28T11:20:52.479Z,96097.91
2022-09-28T11:23:26.897Z,96089.88
2022-09-28T11:26:17.631Z,96094.06
2022-09-28T11:28:51.765Z,96094.75
2022-09-28T11:31:26.179Z,96113.59
2022-09-28T11:34:04.362Z,96097.00
2022-09-28T11:37:13.970Z,96101.69
2022-09-28T11:40:01.233Z,96093.78
2022-09-28T11:43:06.863Z,96096.88
2022-09-28T11:45:45.988Z,96103.34
2022-09-28T11:48:17.705Z,96093.03
2022-09-28T11:51:11.562Z,96093.25
2022-09-28T11:53:53.670Z,96085.41
2022-09-28T11:56:32.637Z,96090.31
2022-09-28T11:59:23.993Z,96098.00
2022-09-28T12:01:57.895Z,96094.47
2022-09-28T12:04:39.891Z,96108.63
2022-09-28T12:07:21.984Z,96109.44
2022-09-28T12:10:03.402Z,96102.25
2022-09-28T12:12:43.769Z,96101.53
2022-09-28T12:16:12.933Z,96099.34
2022-09-28T12:18:39.018Z,96109.34
2022-09-28T12:21:15.892Z,96106.88
2022-09-28T12:23:45.040Z,96107.84
2022-09-28T12:26:37.261Z,96099.00
2022-09-28T12:29:23.386Z,96103.09
2022-09-28T12:32:15.962Z,96101.97
2022-09-28T12:34:44.332Z,96098.91
2022-09-28T12:37:26.243Z,96112.16
2022-09-28T12:39:59.805Z,96110.31
2022-09-28T12:42:44.339Z,96110.84
2022-09-28T12:46:07.037Z,96116.94
2022-09-28T12:49:04.132Z,96121.63
2022-09-28T12:51:54.203Z,96106.28
2022-09-28T12:54:44.610Z,96112.13
2022-09-28T12:57:48.312Z,96113.59
2022-09-28T13:00:25.363Z,96098.38
2022-09-28T13:03:31.263Z,96107.56
2022-09-28T13:06:57.830Z,96120.25
2022-09-28T13:09:57.251Z,96106.50
2022-09-28T13:12:56.736Z,96109.88
2022-09-28T13:15:41.876Z,96118.81
2022-09-28T13:18:36.394Z,96114.41
2022-09-28T13:21:16.824Z,96114.00
2022-09-28T13:23:50.387Z,96118.59
2022-09-28T13:26:31.810Z,96116.28
2022-09-28T13:29:06.162Z,96114.78
2022-09-28T13:31:37.173Z,96117.59
2022-09-28T13:34:20.564Z,96120.03
2022-09-28T13:37:22.197Z,96118.16
2022-09-28T13:39:53.126Z,96125.34
2022-09-28T13:42:52.061Z,96116.06
2022-09-28T13:45:21.352Z,96115.84
2022-09-28T13:48:00.481Z,96117.84
2022-09-28T13:50:41.592Z,96124.13
2022-09-28T13:53:43.503Z,96121.38
2022-09-28T13:56:16.018Z,96117.84
2022-09-28T13:58:51.878Z,96122.03
2022-09-28T14:01:42.825Z,96131.63
2022-09-28T14:04:22.010Z,96120.66
2022-09-28T14:06:58.011Z,96135.97
2022-09-28T14:09:46.918Z,96134.00
2022-09-28T14:12:45.318Z,96134.31
2022-09-28T14:15:30.052Z,96132.63
2022-09-28T14:18:10.214Z,96132.94
2022-09-28T14:20:37.538Z,96139.91
2022-09-28T14:23:26.998Z,96139.91
2022-09-28T14:26:11.720Z,96138.41
2022-09-28T14:29:16.434Z,96131.44
2022-09-28T14:31:44.669Z,96139.72
2022-09-28T14:35:04.778Z,96138.97
2022-09-28T14:37:59.361Z,96143.31
2022-09-28T14:41:10.306Z,96149.50
2022-09-28T14:43:46.290Z,96140.13
2022-09-28T14:46:17.413Z,96137.00
2022-09-28T14:48:52.801Z,96138.84
2022-09-28T14:51:26.248Z,96136.09
2022-09-28T14:54:00.397Z,96139.91
2022-09-28T14:56:32.883Z,96134.81
2022-09-28T14:59:00.484Z,96134.44
2022-09-28T15:01:27.963Z,96131.16
2022-09-28T15:03:59.075Z,96126.88
2022-09-28T15:06:29.023Z,96121.00
2022-09-28T15:08:55.620Z,96118.75
2022-09-28T15:11:25.361Z,96120.50
2022-09-28T15:14:06.656Z,96116.81
2022-09-28T15:16:33.691Z,96121.78
2022-09-28T15:19:17.503Z,96122.41
2022-09-28T15:21:47.622Z,96121.00
2022-09-28T15:24:28.740Z,96128.50
2022-09-28T15:26:56.887Z,96131.75
2022-09-28T15:29:24.156Z,96136.16
2022-09-28T15:31:54.298Z,96140.56
2022-09-28T15:34:52.702Z,96150.34
2022-09-28T15:37:23.957Z,96152.44
2022-09-28T15:39:52.180Z,96153.59
2022-09-28T15:42:19.503Z,96157.84
2022-09-28T15:45:03.401Z,96147.91
2022-09-28T15:47:32.023Z,96146.56
2022-09-28T15:50:09.238Z,96164.59
2022-09-28T15:52:44.699Z,96163.03
2022-09-28T15:55:20.581Z,96168.00
2022-09-28T15:57:47.493Z,96168.69
2022-09-28T16:00:30.243Z,96173.28
2022-09-28T16:03:09.377Z,96158.09
2022-09-28T16:05:50.922Z,96172.28
2022-09-28T16:08:25.129Z,96174.22
2022-09-28T16:11:12.175Z,96177.50
2022-09-28T16:14:06.349Z,96173.59
2022-09-28T16:16:46.503Z,96171.09
2022-09-28T16:19:26.372Z,96174.81
2022-09-28T16:21:55.881Z,96177.72
2022-09-28T16:24:32.347Z,96176.81
2022-09-28T16:27:27.544Z,96179.59
2022-09-28T16:30:16.474Z,96192.72
2022-09-28T16:32:52.400Z,96188.34
2022-09-28T16:35:28.731Z,96182.25
2022-09-28T16:38:04.435Z,96182.03
2022-09-28T16:40:32.644Z,96184.47
2022-09-28T16:43:03.338Z,96191.03
2022-09-28T16:45:30.150Z,96185.28
2022-09-28T16:47:57.813Z,96191.38
2022-09-28T16:50:25.555Z,96197.06
2022-09-28T16:53:19.585Z,96201.88
2022-09-28T16:55:50.305Z,96201.72
2022-09-28T16:58:17.027Z,96202.00
2022-09-28T17:00:43.721Z,96204.47
2022-09-28T17:03:15.471Z,96198.41
2022-09-28T17:05:42.512Z,96204.66
2022-09-28T17:08:17.206Z,96207.56
2022-09-28T17:13:41.949Z,96206.63
2022-09-28T17:16:18.565Z,96209.19
2022-09-28T17:18:46.378Z,96213.97
2022-09-28T17:21:16.383Z,96202.50
2022-09-28T17:23:43.931Z,96195.00
2022-09-28T17:26:22.960Z,96212.72
2022-09-28T17:28:53.119Z,96214.63
2022-09-28T17:31:23.104Z,96215.56
2022-09-28T17:33:53.200Z,96214.31
2022-09-28T17:36:23.697Z,96212.41
2022-09-28T17:38:53.602Z,96209.22
2022-09-28T17:41:23.725Z,96224.88
2022-09-28T17:43:55.907Z,96217.06
2022-09-28T17:46:29.920Z,96214.81
2022-09-28T17:49:04.244Z,96224.25
2022-09-28T17:51:37.619Z,96220.59
2022-09-28T17:54:08.196Z,96213.56
2022-09-28T17:56:36.552Z,96214.34
2022-09-28T17:59:08.434Z,96219.00
2022-09-28T18:01:39.701Z,96216.59
2022-09-28T18:04:08.930Z,96219.44
2022-09-28T18:06:45.407Z,96214.69
2022-09-28T18:09:25.540Z,96210.69
2022-09-28T18:12:01.118Z,96216.59
2022-09-28T18:14:28.587Z,96219.13
2022-09-28T18:16:58.135Z,96218.75
2022-09-28T18:19:31.673Z,96215.84
2022-09-28T18:21:59.357Z,96219.34
2022-09-28T18:24:29.066Z,96214.44
2022-09-28T18:26:58.806Z,96208.84
2022-09-28T18:29:29.907Z,96213.81
2022-09-28T18:31:59.273Z,96215.88
2022-09-28T18:34:29.493Z,96203.28
2022-09-28T18:36:57.371Z,96212.41
2022-09-28T18:39:26.973Z,96207.44
2022-09-28T18:41:57.772Z,96215.56
2022-09-28T18:44:28.585Z,96216.00
2022-09-28T18:47:02.389Z,96220.03
2022-09-28T18:49:33.650Z,96219.34
2022-09-28T18:52:01.289Z,96213.59
2022-09-28T18:54:29.763Z,96214.22
2022-09-28T18:57:00.307Z,96217.19
2022-09-28T18:59:31.069Z,96217.66
2022-09-28T19:02:01.726Z,96223.66
2022-09-28T19:04:31.339Z,96223.97
2022-09-28T19:07:01.105Z,96228.16
2022-09-28T19:09:31.962Z,96228.28
2022-09-28T19:12:02.588Z,96225.34
2022-09-28T19:14:32.086Z,96219.75
2022-09-28T19:17:04.425Z,96225.78
2022-09-28T19:19:33.225Z,96223.28
2022-09-28T19:22:04.778Z,96224.25
2022-09-28T19:24:35.901Z,96230.34
2022-09-28T19:27:04.510Z,96224.25
2022-09-28T19:29:34.954Z,96236.44
2022-09-28T19:32:07.087Z,96242.00
2022-09-28T19:34:33.621Z,96239.59
2022-09-28T19:37:03.845Z,96239.28
2022-09-28T19:39:31.300Z,96235.28
2022-09-28T19:41:59.756Z,96237.19
2022-09-28T19:44:28.192Z,96248.03
2022-09-28T19:47:00.862Z,96248.81
2022-09-28T19:49:27.986Z,96246.25
2022-09-28T19:54:56.905Z,96244.59
2022-09-28T19:57:28.884Z,96246.00
2022-09-28T20:00:01.754Z,96242.81
2022-09-28T20:02:29.436Z,96239.94
2022-09-28T20:04:56.129Z,96236.63
2022-09-28T20:07:23.108Z,96252.41
2022-09-28T20:09:52.162Z,96249.25
2022-09-28T20:12:18.922Z,96249.94
2022-09-28T20:14:45.624Z,96249.25
2022-09-28T20:17:13.135Z,96255.91
2022-09-28T20:19:39.698Z,96247.66
2022-09-28T20:22:06.648Z,96251.34
2022-09-28T20:24:33.783Z,96256.91
2022-09-28T20:27:01.561Z,96262.50
2022-09-28T20:29:28.831Z,96257.88
2022-09-28T20:31:56.799Z,96250.50
2022-09-28T20:34:23.424Z,96250.50
2022-09-28T20:36:50.093Z,96254.81
2022-09-28T20:39:16.988Z,96246.19
2022-09-28T20:41:43.720Z,96251.13
2022-09-28T20:44:10.402Z,96253.81
2022-09-28T20:46:37.577Z,96244.91
2022-09-28T20:49:05.269Z,96251.72
2022-09-28T20:51:32.254Z,96255.72
2022-09-28T20:53:59.459Z,96263.72
2022-09-28T20:56:28.997Z,96262.41
2022-09-28T20:58:56.949Z,96254.69
2022-09-28T21:01:28.786Z,96245.91
2022-09-28T21:04:00.410Z,96238.59
2022-09-28T21:06:29.585Z,96249.25
2022-09-28T21:08:56.498Z,96257.56
2022-09-28T21:11:25.226Z,96260.78
2022-09-28T21:13:53.681Z,96259.63
2022-09-28T21:16:20.946Z,96258.91
2022-09-28T21:18:47.761Z,96263.53
2022-09-28T21:21:16.984Z,96263.22
2022-09-28T21:23:47.036Z,96273.25
2022-09-28T21:26:25.164Z,96261.44
2022-09-28T21:28:59.703Z,96272.88
2022-09-28T21:31:29.676Z,96270.47
2022-09-28T21:33:57.740Z,96268.56
2022-09-28T21:36:24.785Z,96271.69
2022-09-28T21:38:51.497Z,96277.41
2022-09-28T21:41:18.070Z,96276.63
2022-09-28T21:43:45.842Z,96278.63
2022-09-28T21:46:13.197Z,96273.41
2022-09-28T21:48:39.819Z,96280.06
2022-09-28T21:51:09.217Z,96275.66
2022-09-28T21:53:38.388Z,96277.06
2022-09-28T21:56:08.189Z,96280.38
2022-09-28T21:58:36.032Z,96274.97
2022-09-28T22:01:07.851Z,96283.69
2022-09-28T22:03:36.539Z,96283.19
2022-09-28T22:06:04.723Z,96275.88
2022-09-28T22:08:31.733Z,96270.78
2022-09-28T22:11:13.252Z,96275.59
2022-09-28T22:13:45.715Z,96282.16
2022-09-28T22:16:14.493Z,96281.66
2022-09-28T22:18:41.651Z,96275.06
2022-09-28T22:21:12.584Z,96277.97
2022-09-28T22:23:40.051Z,96279.28
2022-09-28T22:26:11.576Z,96282.97
2022-09-28T22:28:40.108Z,96275.38
2022-09-28T22:31:07.035Z,96269.56
2022-09-28T22:33:34.155Z,96260.75
2022-09-28T22:36:01.029Z,96267.09
2022-09-28T22:38:31.131Z,96256.78
2022-09-28T22:40:58.413Z,96266.78
2022-09-28T22:43:26.729Z,96268.47
2022-09-28T22:46:04.040Z,96265.31
2022-09-28T22:48:31.153Z,96285.41
2022-09-28T22:50:58.049Z,96282.91
2022-09-28T22:53:25.159Z,96277.50
2022-09-28T22:55:52.123Z,96283.19
2022-09-28T22:58:18.829Z,96285.09
2022-09-28T23:00:45.663Z,96285.59
2022-09-28T23:03:12.716Z,96291.59
2022-09-28T23:05:39.383Z,96285.81
2022-09-28T23:08:06.047Z,96282.63
2022-09-28T23:10:32.972Z,96287.41
2022-09-28T23:12:59.679Z,96285.53
2022-09-28T23:15:27.871Z,96293.00
2022-09-28T23:17:55.223Z,96292.19
2022-09-28T23:20:22.314Z,96286.81
2022-09-28T23:22:49.810Z,96276.91
2022-09-28T23:25:17.924Z,96278.41
2022-09-28T23:27:48.829Z,96277.41
2022-09-28T23:30:17.011Z,96269.78
2022-09-28T23:32:44.331Z,96266.00
2022-09-28T23:35:11.183Z,96269.78
2022-09-28T23:37:38.259Z,96259.19
2022-09-28T23:40:06.338Z,96264.00
2022-09-28T23:42:34.826Z,96252.06
2022-09-28T23:45:01.441Z,96251.19
2022-09-28T23:47:28.317Z,96251.78
2022-09-28T23:49:54.867Z,96251.66
2022-09-28T23:52:21.626Z,96250.56
2022-09-28T23:54:48.197Z,96251.88
2022-09-28T23:57:14.803Z,96242.25
2022-09-28T23:59:41.470Z,96234.75
